Time;durP1;ratioP1;P1;durP2;ratioP2;P2;SDS_P1;SDS_P2;PMS_P1;PMS_P2;Temp;Humidity;BMP_temperature;BMP_pressure;BME280_temperature;BME280_humidity;BME280_pressure;Samples;Min_cycle;Max_cycle;Signal;HPM_P1;HPM_P2
2022/07/17 00:00:14;;;;;;;0.40;0.40;;;;;;;20.01;38.04;102068.19;5187199;28;20657;-87
2022/07/17 00:02:48;;;;;;;0.55;0.55;;;;;;;19.96;38.22;102070.19;5216444;28;20049;-87
2022/07/17 00:05:18;;;;;;;1.38;0.85;;;;;;;19.93;38.27;102065.88;5210707;28;20045;-86
2022/07/17 00:07:49;;;;;;;0.20;0.20;;;;;;;19.89;38.28;102072.28;5214222;28;20105;-86
2022/07/17 00:10:20;;;;;;;0.35;0.35;;;;;;;19.88;38.37;102061.69;5223152;28;20044;-86
2022/07/17 00:12:53;;;;;;;0.22;0.22;;;;;;;19.85;38.44;102061.84;5187348;28;20079;-86
2022/07/17 00:15:23;;;;;;;1.10;0.52;;;;;;;19.81;38.46;102061.94;5215249;28;20037;-87
2022/07/17 00:17:54;;;;;;;0.40;0.40;;;;;;;19.78;38.50;102051.44;5195750;28;20028;-86
2022/07/17 00:20:26;;;;;;;0.45;0.45;;;;;;;19.75;38.65;102054.22;5182545;28;20046;-87
2022/07/17 00:22:57;;;;;;;0.80;0.75;;;;;;;19.73;38.68;102058.75;5172936;28;20029;-87
2022/07/17 00:25:28;;;;;;;0.40;0.40;;;;;;;19.68;38.78;102055.44;5181112;28;20495;-87
2022/07/17 00:27:59;;;;;;;0.20;0.20;;;;;;;19.67;39.01;102056.34;5202485;28;20116;-87
2022/07/17 00:30:29;;;;;;;0.20;0.20;;;;;;;19.65;39.15;102066.22;5194895;28;20073;-86
2022/07/17 00:33:00;;;;;;;0.50;0.50;;;;;;;19.60;38.80;102058.41;5207218;28;20645;-87
2022/07/17 00:35:33;;;;;;;0.20;0.20;;;;;;;19.57;38.98;102057.69;5219421;28;20029;-87
2022/07/17 00:38:04;;;;;;;0.28;0.28;;;;;;;19.51;39.04;102061.47;5181576;28;20025;-86
2022/07/17 00:40:35;;;;;;;3.53;0.90;;;;;;;19.48;39.02;102054.50;5199706;28;20090;-87
2022/07/17 00:43:05;;;;;;;0.20;0.20;;;;;;;19.44;39.08;102057.34;5193471;28;20029;-86
2022/07/17 00:45:36;;;;;;;0.25;0.25;;;;;;;19.41;39.24;102061.03;5192084;28;20042;-86
2022/07/17 00:48:10;;;;;;;0.38;0.38;;;;;;;19.40;39.40;102059.28;5201820;28;20051;-86
2022/07/17 00:50:42;;;;;;;0.20;0.20;;;;;;;19.37;39.61;102061.22;5203626;28;20162;-85
2022/07/17 00:53:12;;;;;;;0.20;0.20;;;;;;;19.34;39.24;102059.56;5207090;28;20021;-85
2022/07/17 00:55:46;;;;;;;0.30;0.30;;;;;;;19.30;39.43;102056.16;5197158;28;20068;-86
2022/07/17 00:58:19;;;;;;;5.82;1.38;;;;;;;19.26;39.59;102048.38;5199468;28;20040;-86
2022/07/17 01:00:53;;;;;;;0.20;0.20;;;;;;;19.22;39.69;102052.97;5210739;28;20103;-86
2022/07/17 01:03:26;;;;;;;0.28;0.28;;;;;;;19.19;39.71;102051.31;5183702;28;20029;-85
2022/07/17 01:05:56;;;;;;;0.30;0.30;;;;;;;19.16;39.74;102054.09;5210094;28;20045;-86
2022/07/17 01:08:30;;;;;;;0.60;0.43;;;;;;;19.12;39.82;102059.59;5199825;28;20326;-86
2022/07/17 01:11:00;;;;;;;0.63;0.63;;;;;;;19.09;39.74;102059.75;5211723;28;20083;-87
2022/07/17 01:13:31;;;;;;;2.08;1.98;;;;;;;19.06;39.98;102055.41;5214836;28;20041;-86
2022/07/17 01:16:02;;;;;;;2.17;1.92;;;;;;;19.02;39.93;102057.31;5192596;28;20046;-86
2022/07/17 01:18:35;;;;;;;1.75;1.40;;;;;;;19.00;40.14;102066.28;5168147;28;20033;-86
2022/07/17 01:21:06;;;;;;;0.85;0.85;;;;;;;18.95;40.15;102055.84;5211318;28;20317;-86
2022/07/17 01:23:37;;;;;;;0.93;0.63;;;;;;;18.94;40.02;102058.59;5213910;28;20033;-86
2022/07/17 01:26:07;;;;;;;0.47;0.47;;;;;;;18.92;40.29;102057.72;5179972;28;20052;-86
2022/07/17 01:28:40;;;;;;;0.32;0.32;;;;;;;18.86;40.53;102057.06;5179364;28;20621;-86
2022/07/17 01:31:11;;;;;;;2.08;0.82;;;;;;;18.84;40.47;102048.28;5200859;28;20033;-86
2022/07/17 01:33:41;;;;;;;1.77;1.40;;;;;;;18.82;40.42;102051.94;5198037;28;20033;-86
2022/07/17 01:36:15;;;;;;;0.20;0.20;;;;;;;18.78;40.51;102053.88;5195499;28;20140;-86
2022/07/17 01:38:45;;;;;;;0.22;0.22;;;;;;;18.73;40.50;102050.50;5196796;28;20503;-86
2022/07/17 01:41:16;;;;;;;0.20;0.20;;;;;;;18.70;40.68;102050.66;5194490;28;20041;-86
2022/07/17 01:43:47;;;;;;;0.30;0.30;;;;;;;18.66;40.82;102054.34;5193049;28;20025;-86
2022/07/17 01:46:17;;;;;;;0.40;0.40;;;;;;;18.64;40.71;102050.88;5178172;28;20076;-86
2022/07/17 01:48:48;;;;;;;0.20;0.20;;;;;;;18.60;41.01;102049.28;5212222;28;20309;-85
2022/07/17 01:51:18;;;;;;;0.43;0.43;;;;;;;18.55;41.05;102042.34;5210629;28;20044;-86
2022/07/17 01:53:49;;;;;;;0.30;0.30;;;;;;;18.52;41.08;102052.22;5217823;28;20041;-86
2022/07/17 01:56:19;;;;;;;0.40;0.40;;;;;;;18.48;41.18;102047.97;5199633;28;20025;-86
2022/07/17 01:58:50;;;;;;;0.40;0.40;;;;;;;18.44;41.15;102049.88;5195832;28;20044;-86
2022/07/17 02:01:23;;;;;;;0.20;0.20;;;;;;;18.41;41.48;102042.03;5178762;28;20029;-86
2022/07/17 02:03:54;;;;;;;0.63;0.63;;;;;;;18.35;40.77;102036.94;5179701;28;20040;-86
2022/07/17 02:06:24;;;;;;;0.30;0.30;;;;;;;18.33;41.44;102036.13;5192739;28;20081;-86
2022/07/17 02:08:55;;;;;;;4.75;0.88;;;;;;;18.30;41.69;102030.97;5197125;28;20029;-86
2022/07/17 02:11:25;;;;;;;0.47;0.47;;;;;;;18.25;41.54;102037.31;5194492;28;20496;-86
2022/07/17 02:13:56;;;;;;;0.40;0.40;;;;;;;18.21;41.35;102035.72;5170829;28;20037;-86
2022/07/17 02:16:26;;;;;;;1.17;0.68;;;;;;;18.18;41.72;102029.66;5196374;28;20146;-86
2022/07/17 02:18:56;;;;;;;0.82;0.82;;;;;;;18.13;41.74;102039.56;5210660;28;20034;-86
2022/07/17 02:21:27;;;;;;;1.38;0.95;;;;;;;18.12;41.82;102037.81;5157907;28;20685;-86
2022/07/17 02:23:58;;;;;;;0.30;0.30;;;;;;;18.10;41.81;102040.56;5174173;28;20042;-86
2022/07/17 02:26:28;;;;;;;0.28;0.28;;;;;;;18.07;41.79;102043.31;5206969;28;20033;-86
2022/07/17 02:28:59;;;;;;;0.40;0.40;;;;;;;18.06;41.87;102038.91;5184749;28;20071;-86
2022/07/17 02:31:29;;;;;;;0.30;0.30;;;;;;;18.02;42.28;102039.97;5182624;28;20022;-86
2022/07/17 02:34:00;;;;;;;0.45;0.45;;;;;;;17.99;42.01;102032.13;5193366;28;20120;-86
2022/07/17 02:36:31;;;;;;;0.50;0.50;;;;;;;17.95;41.88;102033.97;5176634;28;20025;-86
2022/07/17 02:39:02;;;;;;;3.50;0.40;;;;;;;17.92;42.18;102034.97;5194089;28;20409;-85
2022/07/17 02:41:33;;;;;;;0.30;0.30;;;;;;;17.89;42.25;102032.41;5182601;28;20518;-86
2022/07/17 02:44:03;;;;;;;0.40;0.40;;;;;;;17.86;42.30;102026.34;5206850;28;20068;-85
2022/07/17 02:46:34;;;;;;;1.33;1.05;;;;;;;17.83;42.49;102032.66;5196108;28;20525;-85
2022/07/17 02:49:04;;;;;;;2.40;1.63;;;;;;;17.82;42.38;102030.06;5183748;28;20037;-86
2022/07/17 02:51:35;;;;;;;0.30;0.30;;;;;;;17.78;42.67;102030.16;5212168;28;20048;-85
2022/07/17 02:54:11;;;;;;;;;;;;;;;17.76;42.65;102040.00;5183055;28;20052;-86
2022/07/17 02:56:41;;;;;;;0.35;0.35;;;;;;;17.72;42.60;102035.72;5211411;28;20188;-86
2022/07/17 02:59:12;;;;;;;0.30;0.30;;;;;;;17.70;42.73;102039.34;5195378;28;20159;-85
2022/07/17 03:01:45;;;;;;;0.38;0.38;;;;;;;17.68;42.54;102041.19;5195129;28;20048;-85
2022/07/17 03:04:16;;;;;;;0.35;0.35;;;;;;;17.62;42.71;102048.44;5177950;28;20037;-85
2022/07/17 03:06:46;;;;;;;0.50;0.50;;;;;;;17.59;42.75;102043.25;5195830;28;20078;-86
2022/07/17 03:09:17;;;;;;;1.60;0.90;;;;;;;17.56;42.74;102046.00;5190254;28;20603;-86
2022/07/17 03:11:47;;;;;;;0.43;0.43;;;;;;;17.55;43.11;102049.59;5193997;28;20029;-85
2022/07/17 03:14:18;;;;;;;0.43;0.43;;;;;;;17.52;43.15;102044.38;5194923;28;20041;-86
2022/07/17 03:16:48;;;;;;;0.28;0.28;;;;;;;17.48;43.16;102055.16;5200171;28;20656;-85
2022/07/17 03:19:19;;;;;;;1.02;0.70;;;;;;;17.44;43.04;102041.13;5220337;28;20112;-87
2022/07/17 03:21:49;;;;;;;0.73;0.73;;;;;;;17.44;43.19;102049.09;5177993;28;20021;-86
2022/07/17 03:24:20;;;;;;;0.30;0.30;;;;;;;17.41;43.72;102047.41;5201879;28;20047;-85
2022/07/17 03:26:51;;;;;;;0.40;0.40;;;;;;;17.37;43.31;102060.84;5242228;28;20025;-85
2022/07/17 03:29:21;;;;;;;0.60;0.60;;;;;;;17.34;43.29;102060.94;5223809;28;20041;-86
2022/07/17 03:31:52;;;;;;;0.30;0.30;;;;;;;17.33;43.45;102064.50;5197056;28;20034;-85
2022/07/17 03:34:22;;;;;;;1.02;0.57;;;;;;;17.30;43.61;102063.72;5176155;28;20045;-86
2022/07/17 03:36:53;;;;;;;0.40;0.40;;;;;;;17.26;43.27;102062.06;5178620;28;20115;-87
2022/07/17 03:39:23;;;;;;;0.52;0.52;;;;;;;17.23;43.43;102056.00;5187013;28;20171;-86
2022/07/17 03:41:54;;;;;;;0.20;0.20;;;;;;;17.22;43.70;102059.56;5187653;28;20095;-85
2022/07/17 03:44:24;;;;;;;0.20;0.20;;;;;;;17.18;43.53;102065.91;5191951;28;20049;-85
2022/07/17 03:46:55;;;;;;;0.20;0.20;;;;;;;17.12;43.46;102067.81;5178879;28;20053;-86
2022/07/17 03:49:28;;;;;;;0.30;0.30;;;;;;;17.14;43.69;102065.16;5163593;28;20039;-85
2022/07/17 03:51:59;;;;;;;0.40;0.40;;;;;;;17.09;43.71;102056.47;5197267;28;20025;-86
2022/07/17 03:54:29;;;;;;;2.83;1.08;;;;;;;17.06;43.86;102060.09;5193986;28;20068;-85
2022/07/17 03:57:00;;;;;;;0.70;0.70;;;;;;;17.04;43.94;102061.91;5178326;28;20033;-86
2022/07/17 03:59:30;;;;;;;0.30;0.30;;;;;;;17.03;44.08;102056.66;5180487;28;20588;-86
2022/07/17 04:02:01;;;;;;;0.52;0.52;;;;;;;16.99;44.25;102051.44;5220097;28;20394;-86
2022/07/17 04:04:31;;;;;;;0.40;0.40;;;;;;;16.97;44.29;102063.91;5186569;28;20045;-86
2022/07/17 04:07:02;;;;;;;0.50;0.50;;;;;;;16.94;44.06;102063.16;5188225;28;20030;-86
2022/07/17 04:09:32;;;;;;;0.40;0.40;;;;;;;16.90;44.05;102061.47;5186384;28;20041;-86
2022/07/17 04:12:03;;;;;;;0.30;0.30;;;;;;;16.90;44.50;102064.97;5172567;28;20112;-86
2022/07/17 04:14:33;;;;;;;0.40;0.40;;;;;;;16.89;44.31;102063.25;5186563;28;20037;-86
2022/07/17 04:17:04;;;;;;;0.40;0.40;;;;;;;16.86;44.33;102066.00;5187706;28;20026;-86
2022/07/17 04:19:34;;;;;;;0.43;0.43;;;;;;;16.82;44.24;102059.06;5219558;28;20044;-86
2022/07/17 04:22:05;;;;;;;0.55;0.40;;;;;;;16.80;44.43;102059.09;5201077;28;20159;-86
2022/07/17 04:24:35;;;;;;;0.30;0.30;;;;;;;16.78;44.58;102058.28;5194756;28;20056;-86
2022/07/17 04:27:06;;;;;;;0.32;0.32;;;;;;;16.74;44.32;102061.97;5185255;28;20032;-86
2022/07/17 04:29:37;;;;;;;1.48;1.38;;;;;;;16.72;44.53;102057.63;5182302;28;20110;-86
2022/07/17 04:32:08;;;;;;;2.47;0.65;;;;;;;16.72;44.61;102054.97;5200057;28;20307;-86
2022/07/17 04:34:42;;;;;;;0.20;0.20;;;;;;;16.68;44.69;102057.72;5203175;28;20073;-86
2022/07/17 04:37:12;;;;;;;;;;;;;;;16.70;45.19;102059.47;5199438;28;20376;-86
2022/07/17 04:39:43;;;;;;;0.45;0.45;;;;;;;16.69;45.17;102066.56;5157843;28;20279;-86
2022/07/17 04:42:16;;;;;;;0.20;0.20;;;;;;;16.66;44.99;102072.78;5174101;28;20048;-86
2022/07/17 04:44:47;;;;;;;1.02;0.47;;;;;;;16.64;44.53;102076.41;5193498;28;20490;-85
2022/07/17 04:47:17;;;;;;;2.60;0.43;;;;;;;16.65;45.56;102079.00;5167312;28;20074;-86
2022/07/17 04:49:48;;;;;;;1.65;0.85;;;;;;;16.63;45.21;102075.56;5203883;28;20032;-86
2022/07/17 04:52:18;;;;;;;0.50;0.50;;;;;;;16.61;45.57;102074.72;5203760;28;20448;-86
2022/07/17 04:54:49;;;;;;;0.28;0.28;;;;;;;16.60;45.28;102080.94;5206067;28;20511;-86
2022/07/17 04:57:28;;;;;;;0.52;0.52;;;;;;;16.59;45.40;102073.03;5200356;28;20226;-86
2022/07/17 05:00:01;;;;;;;0.52;0.52;;;;;;;16.60;45.48;102075.63;5197386;28;20030;-86
2022/07/17 05:02:32;;;;;;;0.20;0.20;;;;;;;16.60;45.34;102070.34;5179857;28;20049;-86
2022/07/17 05:05:06;;;;;;;0.52;0.52;;;;;;;16.59;45.34;102068.59;5180352;28;20678;-86
2022/07/17 05:07:36;;;;;;;0.28;0.28;;;;;;;16.60;45.55;102077.44;5163922;28;20229;-86
2022/07/17 05:10:08;;;;;;;0.30;0.30;;;;;;;16.62;45.69;102084.41;5202901;28;20041;-86
2022/07/17 05:12:39;;;;;;;0.30;0.30;;;;;;;16.60;45.50;102080.94;5201378;28;20029;-86
2022/07/17 05:15:09;;;;;;;0.20;0.20;;;;;;;16.61;45.63;102082.69;5194810;28;20104;-87
2022/07/17 05:17:40;;;;;;;0.30;0.30;;;;;;;16.63;46.00;102082.63;5198532;28;20064;-84
2022/07/17 05:20:11;;;;;;;0.60;0.60;;;;;;;16.63;45.88;102086.16;5180475;28;20037;-85
2022/07/17 05:22:41;;;;;;;0.20;0.20;;;;;;;16.64;46.15;102087.00;5204281;28;20178;-86
2022/07/17 05:25:12;;;;;;;0.20;0.20;;;;;;;16.66;46.03;102095.78;5206513;28;20076;-86
2022/07/17 05:27:42;;;;;;;0.30;0.30;;;;;;;16.68;46.25;102089.53;5207289;28;20033;-84
2022/07/17 05:30:13;;;;;;;0.50;0.50;;;;;;;16.71;46.35;102099.16;5196795;28;20499;-85
2022/07/17 05:32:43;;;;;;;0.40;0.40;;;;;;;16.71;46.22;102101.81;5195810;28;20095;-85
2022/07/17 05:35:14;;;;;;;0.73;0.73;;;;;;;16.72;46.58;102095.59;5178722;28;20063;-85
2022/07/17 05:37:44;;;;;;;2.13;1.48;;;;;;;16.73;46.36;102097.31;5159258;28;20239;-86
2022/07/17 05:40:15;;;;;;;1.13;1.10;;;;;;;16.77;46.67;102103.41;5157462;28;20532;-86
2022/07/17 05:42:46;;;;;;;0.35;0.35;;;;;;;16.76;46.47;102102.53;5177093;28;20106;-87
2022/07/17 05:45:16;;;;;;;0.75;0.73;;;;;;;16.78;46.79;102110.44;5172576;28;20041;-87
2022/07/17 05:47:46;;;;;;;0.40;0.40;;;;;;;16.80;46.73;102111.28;5208780;28;20108;-86
2022/07/17 05:50:17;;;;;;;0.73;0.73;;;;;;;16.83;46.97;102116.44;5192099;28;20295;-86
2022/07/17 05:52:48;;;;;;;1.27;0.95;;;;;;;16.80;47.88;102129.81;5182899;28;20426;-87
2022/07/17 05:55:18;;;;;;;2.08;0.88;;;;;;;16.86;47.04;102123.47;5201325;28;20330;-87
2022/07/17 05:57:51;;;;;;;2.50;1.73;;;;;;;16.90;47.21;102125.94;5178406;28;20037;-87
2022/07/17 06:00:22;;;;;;;1.05;0.95;;;;;;;16.90;47.37;102118.00;5194971;28;20029;-85
2022/07/17 06:02:53;;;;;;;1.63;0.77;;;;;;;16.91;47.12;102110.94;5204490;28;20156;-86
2022/07/17 06:05:27;;;;;;;0.20;0.20;;;;;;;16.96;47.14;102109.91;5218515;28;20064;-85
2022/07/17 06:07:58;;;;;;;0.40;0.35;;;;;;;16.95;47.97;102113.47;5215328;28;20033;-86
2022/07/17 06:10:28;;;;;;;0.30;0.30;;;;;;;16.99;47.23;102112.44;5235305;28;20048;-86
2022/07/17 06:12:59;;;;;;;1.15;1.05;;;;;;;16.99;47.43;102115.09;5192172;28;20041;-86
2022/07/17 06:15:30;;;;;;;0.82;0.82;;;;;;;17.03;47.29;102110.56;5177590;28;20048;-87
2022/07/17 06:18:02;;;;;;;0.55;0.55;;;;;;;17.08;47.37;102113.06;5183532;28;20052;-85
2022/07/17 06:20:32;;;;;;;0.60;0.60;;;;;;;17.12;47.63;102109.41;5201403;28;20048;-85
2022/07/17 06:23:03;;;;;;;1.95;1.13;;;;;;;17.14;47.56;102110.22;5197044;28;20037;-82
2022/07/17 06:25:34;;;;;;;0.20;0.20;;;;;;;17.16;47.84;102105.72;5210119;28;20056;-85
2022/07/17 06:28:05;;;;;;;0.55;0.55;;;;;;;17.19;47.76;102099.47;5161447;28;20088;-85
2022/07/17 06:30:35;;;;;;;0.43;0.43;;;;;;;17.21;47.69;102101.16;5204372;28;20462;-86
2022/07/17 06:33:06;;;;;;;0.32;0.32;;;;;;;17.21;48.35;102093.19;5181339;28;20036;-85
2022/07/17 06:35:37;;;;;;;0.45;0.45;;;;;;;17.31;49.40;102085.78;5176342;28;20033;-86
2022/07/17 06:38:08;;;;;;;0.47;0.47;;;;;;;17.33;48.35;102096.34;5180841;28;20147;-86
2022/07/17 06:40:39;;;;;;;0.28;0.28;;;;;;;17.40;48.80;102097.84;5182031;28;20137;-86
2022/07/17 06:43:10;;;;;;;0.30;0.30;;;;;;;17.41;48.27;102096.94;5195363;28;20115;-87
2022/07/17 06:45:40;;;;;;;0.52;0.52;;;;;;;17.47;48.46;102088.78;5175704;28;20041;-85
2022/07/17 06:48:11;;;;;;;0.30;0.30;;;;;;;17.51;48.56;102093.06;5198152;28;20238;-84
2022/07/17 06:50:42;;;;;;;0.40;0.40;;;;;;;17.54;48.52;102087.66;5198852;28;20052;-86
2022/07/17 06:53:13;;;;;;;1.05;0.95;;;;;;;17.56;48.38;102088.44;5174856;28;20037;-86
2022/07/17 06:55:46;;;;;;;1.50;1.27;;;;;;;17.59;48.84;102087.50;5180394;28;20049;-85
2022/07/17 06:58:17;;;;;;;0.35;0.35;;;;;;;17.61;48.32;102091.84;5162674;28;20341;-85
2022/07/17 07:00:47;;;;;;;0.35;0.35;;;;;;;17.62;48.48;102088.25;5200790;28;20129;-86
2022/07/17 07:03:18;;;;;;;0.20;0.20;;;;;;;17.62;50.60;102088.25;5183727;28;20021;-86
2022/07/17 07:05:48;;;;;;;0.20;0.20;;;;;;;17.70;48.82;102084.47;5215395;28;20068;-84
2022/07/17 07:08:19;;;;;;;1.10;0.50;;;;;;;17.75;48.35;102083.38;5204464;28;20752;-85
2022/07/17 07:10:49;;;;;;;0.20;0.20;;;;;;;17.75;51.14;102088.69;5215556;28;20364;-85
2022/07/17 07:13:20;;;;;;;0.40;0.40;;;;;;;17.79;50.06;102092.09;5215475;28;20037;-86
2022/07/17 07:15:50;;;;;;;0.30;0.30;;;;;;;17.87;49.71;102081.19;5185013;28;20120;-84
2022/07/17 07:18:43;;;;;;;0.20;0.20;;;;;;;17.86;50.21;102085.66;5217720;28;20036;-86
2022/07/17 07:21:13;;;;;;;0.40;0.40;;;;;;;17.99;48.96;102090.53;5190353;28;20477;-83
2022/07/17 07:23:44;;;;;;;0.20;0.20;;;;;;;18.05;48.72;102093.84;5215467;28;20029;-84
2022/07/17 07:26:15;;;;;;;0.30;0.30;;;;;;;18.11;48.70;102095.41;5215854;28;20375;-85
2022/07/17 07:28:45;;;;;;;0.30;0.30;;;;;;;18.14;49.07;102092.63;5193685;28;20036;-85
2022/07/17 07:31:16;;;;;;;0.43;0.43;;;;;;;18.14;49.03;102084.66;5194860;28;20052;-85
2022/07/17 07:33:47;;;;;;;0.20;0.20;;;;;;;18.14;49.14;102076.69;5218657;28;20029;-84
2022/07/17 07:36:18;;;;;;;0.50;0.50;;;;;;;18.24;48.45;102075.41;5213657;28;20370;-86
2022/07/17 07:38:48;;;;;;;0.40;0.40;;;;;;;18.21;49.63;102064.03;5221004;28;20386;-86
2022/07/17 07:41:19;;;;;;;0.38;0.38;;;;;;;18.25;48.50;102069.19;5217077;28;20036;-87
2022/07/17 07:43:49;;;;;;;0.90;0.73;;;;;;;18.31;48.40;102085.81;5214434;28;20033;-86
2022/07/17 07:46:20;;;;;;;0.55;0.55;;;;;;;18.34;48.13;102097.22;5197512;28;20029;-85
2022/07/17 07:48:51;;;;;;;4.03;0.63;;;;;;;18.42;48.22;102096.91;5183204;28;20329;-86
2022/07/17 07:51:21;;;;;;;0.28;0.28;;;;;;;18.43;48.13;102101.28;5185748;28;20025;-85
2022/07/17 07:53:52;;;;;;;1.25;1.15;;;;;;;18.45;48.21;102107.44;5181426;28;20512;-85
2022/07/17 07:56:23;;;;;;;6.70;0.93;;;;;;;18.45;48.06;102106.53;5198916;28;20154;-84
2022/07/17 07:58:54;;;;;;;0.20;0.20;;;;;;;18.49;47.90;102105.50;5212881;28;20045;-86
2022/07/17 08:01:24;;;;;;;0.30;0.30;;;;;;;18.45;47.95;102110.09;5195846;28;20029;-85
2022/07/17 08:03:55;;;;;;;0.20;0.20;;;;;;;18.41;47.64;102121.72;5212542;28;20033;-88
2022/07/17 08:06:26;;;;;;;10.38;1.45;;;;;;;18.38;46.36;102122.72;5181541;28;20056;-85
2022/07/17 08:08:56;;;;;;;0.40;0.40;;;;;;;18.48;46.33;102128.53;5166509;28;20072;-86
2022/07/17 08:11:27;;;;;;;0.20;0.20;;;;;;;18.57;46.45;102127.34;5163803;28;20033;-86
2022/07/17 08:13:59;;;;;;;0.20;0.20;;;;;;;18.63;46.10;102127.09;5182271;28;20117;-85
2022/07/17 08:16:29;;;;;;;0.47;0.47;;;;;;;18.67;46.21;102126.06;5181276;28;20463;-85
2022/07/17 08:19:00;;;;;;;0.88;0.65;;;;;;;18.62;45.92;102125.38;5202095;28;20094;-86
2022/07/17 08:21:30;;;;;;;0.25;0.25;;;;;;;18.63;45.80;102131.56;5216470;28;20029;-85
2022/07/17 08:24:01;;;;;;;0.57;0.40;;;;;;;18.62;45.87;102130.69;5217714;28;20151;-85
2022/07/17 08:26:31;;;;;;;0.30;0.30;;;;;;;18.77;46.10;102131.88;5223866;28;20026;-85
2022/07/17 08:29:02;;;;;;;0.20;0.20;;;;;;;18.84;45.38;102130.72;5184453;28;20037;-85
2022/07/17 08:31:35;;;;;;;0.40;0.40;;;;;;;18.84;45.63;102137.84;5199854;28;20394;-85
2022/07/17 08:34:08;;;;;;;0.52;0.52;;;;;;;18.89;45.54;102135.84;5196026;28;20067;-85
2022/07/17 08:36:38;;;;;;;0.38;0.38;;;;;;;19.08;44.66;102133.34;5197287;28;20068;-85
2022/07/17 08:39:09;;;;;;;0.22;0.22;;;;;;;18.95;45.01;102137.44;5183706;28;20504;-85
2022/07/17 08:41:42;;;;;;;0.30;0.30;;;;;;;19.02;45.32;102141.59;5189903;28;20024;-85
2022/07/17 08:44:14;;;;;;;0.30;0.30;;;;;;;19.07;45.19;102134.28;5189489;28;20045;-85
2022/07/17 08:46:45;;;;;;;0.20;0.20;;;;;;;19.11;45.22;102127.03;5205934;28;20025;-84
2022/07/17 08:49:22;;;;;;;0.55;0.55;;;;;;;19.34;44.74;102131.41;5220970;28;20049;-85
2022/07/17 08:51:55;;;;;;;;;;;;;;;19.28;44.58;102121.88;5215988;28;20033;-84
2022/07/17 08:54:28;;;;;;;0.20;0.20;;;;;;;19.37;44.70;102123.31;5204908;28;19924;-84
2022/07/17 08:57:03;;;;;;;0.20;0.20;;;;;;;19.43;44.44;102114.19;5197635;28;20728;-84
2022/07/17 08:59:34;;;;;;;0.20;0.20;;;;;;;19.40;44.51;102120.50;5189121;28;20036;-85
2022/07/17 09:02:06;;;;;;;0.88;0.88;;;;;;;19.52;44.48;102119.13;5198241;28;20036;-85
2022/07/17 09:04:36;;;;;;;1.38;0.75;;;;;;;19.45;44.39;102109.66;5181179;28;20097;-86
2022/07/17 09:07:07;;;;;;;0.30;0.30;;;;;;;19.48;44.12;102115.72;5216356;28;20156;-85
2022/07/17 09:09:37;;;;;;;0.40;0.40;;;;;;;19.53;44.41;102107.53;5194717;28;20054;-86
2022/07/17 09:12:07;;;;;;;0.25;0.25;;;;;;;19.55;44.36;102107.47;5184272;28;20160;-86
2022/07/17 09:14:40;;;;;;;11.07;0.73;;;;;;;19.66;43.75;102106.09;5196724;28;20426;-85
2022/07/17 09:17:14;;;;;;;0.47;0.47;;;;;;;19.68;43.99;102114.00;5171486;28;20047;-86
2022/07/17 09:19:45;;;;;;;0.73;0.73;;;;;;;19.71;43.79;102115.66;5204474;28;20049;-86
2022/07/17 09:22:17;;;;;;;0.38;0.30;;;;;;;19.71;44.30;102108.53;5202111;28;20399;-86
2022/07/17 09:24:53;;;;;;;0.20;0.20;;;;;;;19.74;44.19;102111.06;5193580;28;20037;-83
2022/07/17 09:27:24;;;;;;;0.25;0.25;;;;;;;19.81;43.93;102115.19;5200514;28;20041;-85
2022/07/17 09:30:05;;;;;;;0.30;0.30;;;;;;;19.91;44.10;102110.38;5231488;28;20052;-85
2022/07/17 09:32:40;;;;;;;0.20;0.20;;;;;;;19.95;44.53;102111.94;5222245;28;20118;-87
2022/07/17 09:35:11;;;;;;;0.50;0.50;;;;;;;20.03;44.35;102108.06;5201233;28;20560;-85
2022/07/17 09:37:41;;;;;;;11.90;1.10;;;;;;;20.08;44.22;102106.94;5187097;28;20111;-86
2022/07/17 09:43:03;;;;;;;5.35;0.30;;;;;;;20.19;43.92;102103.78;5201863;28;20037;-85
2022/07/17 09:45:35;;;;;;;0.20;0.20;;;;;;;20.31;43.96;102091.69;5193623;28;20045;-85
2022/07/17 09:48:08;;;;;;;0.63;0.63;;;;;;;20.27;43.43;102093.63;5236988;28;20021;-85
2022/07/17 09:50:41;;;;;;;0.85;0.52;;;;;;;20.43;43.59;102100.91;5237809;28;20037;-85
2022/07/17 09:53:12;;;;;;;0.40;0.40;;;;;;;20.43;43.71;102104.47;5240394;28;20056;-86
2022/07/17 09:55:43;;;;;;;0.40;0.40;;;;;;;20.48;43.06;102101.56;5173658;28;20034;-84
2022/07/17 09:58:21;;;;;;;0.68;0.50;;;;;;;20.49;43.14;102105.09;5193162;28;20685;-84
2022/07/17 10:00:51;;;;;;;0.32;0.32;;;;;;;20.45;42.94;102094.56;5211406;28;20048;-84
2022/07/17 10:03:26;;;;;;;7.38;1.15;;;;;;;20.44;41.75;102100.84;5197166;28;20442;-83
2022/07/17 10:05:57;;;;;;;0.70;0.70;;;;;;;20.44;41.12;102105.31;5214017;28;20033;-83
2022/07/17 10:08:31;;;;;;;0.32;0.32;;;;;;;20.48;40.29;102106.03;5185051;28;20037;-84
2022/07/17 10:11:05;;;;;;;0.25;0.25;;;;;;;20.51;41.36;102103.22;5185028;28;20518;-84
2022/07/17 10:13:48;;;;;;;0.35;0.35;;;;;;;20.58;41.13;102110.00;5193025;28;20678;-84
2022/07/17 10:16:26;;;;;;;0.25;0.25;;;;;;;20.67;41.50;102109.56;5201418;28;20033;-85
2022/07/17 10:18:57;;;;;;;0.30;0.30;;;;;;;20.73;42.33;102108.44;5214400;28;20030;-86
2022/07/17 10:21:30;;;;;;;0.20;0.20;;;;;;;20.92;40.54;102113.75;5156868;28;20442;-87
2022/07/17 10:24:03;;;;;;;0.60;0.60;;;;;;;20.96;41.25;102104.63;5210689;28;20052;-84
2022/07/17 10:26:44;;;;;;;0.20;0.20;;;;;;;20.94;41.07;102109.22;5167386;28;20420;-87
2022/07/17 10:29:28;;;;;;;0.28;0.28;;;;;;;20.92;40.52;102105.75;5174025;28;20061;-84
2022/07/17 10:32:03;;;;;;;5.63;0.40;;;;;;;20.98;41.32;102109.91;5184431;28;20078;-84
2022/07/17 10:34:54;;;;;;;2.38;0.55;;;;;;;21.07;40.83;102112.97;5191547;28;20049;-85
2022/07/17 10:37:31;;;;;;;0.35;0.35;;;;;;;21.10;41.72;102106.63;5201735;28;20049;-83
2022/07/17 10:40:05;;;;;;;0.85;0.55;;;;;;;21.22;41.77;102105.16;5208855;28;20120;-85
2022/07/17 10:42:43;;;;;;;0.20;0.20;;;;;;;21.29;41.58;102101.22;5207317;28;20033;-85
2022/07/17 10:45:17;;;;;;;0.28;0.28;;;;;;;21.39;41.45;102107.81;5176110;28;20053;-86
2022/07/17 10:47:57;;;;;;;0.30;0.30;;;;;;;21.44;40.10;102101.41;5182714;28;20056;-86
2022/07/17 10:50:52;;;;;;;0.75;0.75;;;;;;;21.53;40.17;102098.22;5193668;28;20145;-86
2022/07/17 10:53:30;;;;;;;1.05;0.95;;;;;;;21.53;40.84;102101.78;5215496;28;20656;-86
2022/07/17 10:56:08;;;;;;;0.30;0.30;;;;;;;21.61;39.96;102101.41;5169229;28;20674;-86
2022/07/17 10:58:42;;;;;;;1.00;0.65;;;;;;;21.59;39.92;102097.09;5183543;28;20045;-85
2022/07/17 11:01:15;;;;;;;2.08;0.40;;;;;;;21.66;39.59;102096.69;5204970;28;20112;-85
2022/07/17 11:03:52;;;;;;;1.45;0.60;;;;;;;21.72;39.12;102099.97;5208346;28;20462;-86
2022/07/17 11:06:25;;;;;;;0.50;0.50;;;;;;;21.82;40.10;102098.56;5211597;28;20033;-85
2022/07/17 11:09:16;;;;;;;0.20;0.20;;;;;;;21.93;39.66;102101.53;5210414;28;20032;-86
2022/07/17 11:11:52;;;;;;;1.75;0.90;;;;;;;21.98;40.08;102093.28;5190308;28;20029;-86
2022/07/17 11:14:24;;;;;;;0.20;0.20;;;;;;;22.03;39.71;102091.22;5193076;28;20418;-86
2022/07/17 11:16:55;;;;;;;;;;;;;;;22.08;39.23;102082.94;5199674;28;20037;-86
2022/07/17 11:19:25;;;;;;;1.10;0.82;;;;;;;22.14;37.63;102083.47;5212062;28;20357;-86
2022/07/17 11:21:58;;;;;;;0.75;0.63;;;;;;;22.29;38.65;102086.25;5194549;28;20048;-85
2022/07/17 11:24:47;;;;;;;0.20;0.20;;;;;;;22.41;38.18;102090.94;5207153;28;20318;-86
2022/07/17 11:27:22;;;;;;;0.30;0.30;;;;;;;22.47;37.83;102087.94;5213704;28;20155;-86
2022/07/17 11:29:54;;;;;;;0.40;0.40;;;;;;;22.47;36.96;102090.63;5194500;28;20045;-87
2022/07/17 11:32:31;;;;;;;0.27;0.27;;;;;;;22.62;36.70;102088.88;5182297;28;20032;-86
2022/07/17 11:35:14;;;;;;;0.20;0.20;;;;;;;22.69;37.40;102078.69;5179685;28;20318;-84
2022/07/17 11:37:45;;;;;;;0.20;0.20;;;;;;;22.73;37.38;102074.88;5202044;28;20036;-86
2022/07/17 11:40:18;;;;;;;0.20;0.20;;;;;;;22.82;36.54;102077.97;5187780;28;20045;-86
2022/07/17 11:42:59;;;;;;;0.30;0.30;;;;;;;22.85;37.23;102075.13;5151517;28;20030;-86
2022/07/17 11:45:30;;;;;;;0.43;0.43;;;;;;;22.88;37.67;102066.94;5155406;28;20033;-85
2022/07/17 11:48:01;;;;;;;0.70;0.70;;;;;;;22.97;37.03;102063.72;5177650;28;20052;-85
2022/07/17 11:50:32;;;;;;;0.63;0.63;;;;;;;23.07;37.53;102062.22;5208788;28;20834;-85